Covington, Michigan
Current Conditions -  °F | °C
As of 3:15 PM on Saturday 25 Oct 2014 (Local Time) from KLNL Reporting Station
Clear Clear  
Wind Chill: 58°   Ceiling: Unl
Heat Index: 58°   Visibility: 10mi
Dew Point: 26°   Wind: 7mph
Humidity: 29%   Direction: 290°WNW
Pressure: 29.82"   Gusts: 21mph
Location:  46.54°N, 88.54°W
Report Text: KLNL 251915Z AUTO 29006G18KT 10SM CLR 14/M04 A2982 RMK AO2 T01421036
Loading
Personal Weather Stations






























Interactive Weather Map
Tropical Storm Tracking
New forecast layout! Learn more

10-Day Weather Forecast

Advertisements
Track Severe Weather on mobile